sensor_id;sensor_type;location;lat;lon;timestamp;P1;durP1;ratioP1;P2;durP2;ratioP2
23121;SDS011;11730;51.248;22.534;2023-07-31T00:00:19;6.13;;;3.47;;
23121;SDS011;11730;51.248;22.534;2023-07-31T00:02:46;5.30;;;3.70;;
23121;SDS011;11730;51.248;22.534;2023-07-31T00:05:13;7.65;;;5.20;;
23121;SDS011;11730;51.248;22.534;2023-07-31T00:07:40;4.57;;;3.20;;
23121;SDS011;11730;51.248;22.534;2023-07-31T00:10:07;4.03;;;3.47;;
23121;SDS011;11730;51.248;22.534;2023-07-31T00:12:35;6.93;;;3.75;;
23121;SDS011;11730;51.248;22.534;2023-07-31T00:15:02;6.55;;;4.00;;
23121;SDS011;11730;51.248;22.534;2023-07-31T00:17:29;4.90;;;4.43;;
23121;SDS011;11730;51.248;22.534;2023-07-31T00:19:57;4.03;;;3.45;;
23121;SDS011;11730;51.248;22.534;2023-07-31T00:22:24;6.78;;;3.28;;
23121;SDS011;11730;51.248;22.534;2023-07-31T00:24:51;3.85;;;3.45;;
23121;SDS011;11730;51.248;22.534;2023-07-31T00:27:18;3.63;;;3.33;;
23121;SDS011;11730;51.248;22.534;2023-07-31T00:29:45;5.10;;;3.80;;
23121;SDS011;11730;51.248;22.534;2023-07-31T00:32:12;3.75;;;3.28;;
23121;SDS011;11730;51.248;22.534;2023-07-31T00:34:39;4.43;;;3.65;;
23121;SDS011;11730;51.248;22.534;2023-07-31T00:37:06;5.22;;;3.58;;
23121;SDS011;11730;51.248;22.534;2023-07-31T00:39:34;5.60;;;3.85;;
23121;SDS011;11730;51.248;22.534;2023-07-31T00:42:02;5.60;;;4.07;;
23121;SDS011;11730;51.248;22.534;2023-07-31T00:44:30;7.82;;;3.50;;
23121;SDS011;11730;51.248;22.534;2023-07-31T00:46:57;7.20;;;3.85;;
23121;SDS011;11730;51.248;22.534;2023-07-31T00:49:25;4.57;;;3.63;;
23121;SDS011;11730;51.248;22.534;2023-07-31T00:51:53;6.70;;;4.25;;
23121;SDS011;11730;51.248;22.534;2023-07-31T00:54:20;6.65;;;3.72;;
23121;SDS011;11730;51.248;22.534;2023-07-31T00:56:47;5.78;;;4.15;;
23121;SDS011;11730;51.248;22.534;2023-07-31T00:59:17;8.82;;;4.38;;
23121;SDS011;11730;51.248;22.534;2023-07-31T01:01:45;6.00;;;4.00;;
23121;SDS011;11730;51.248;22.534;2023-07-31T01:04:12;6.57;;;4.35;;
23121;SDS011;11730;51.248;22.534;2023-07-31T01:06:41;11.82;;;4.68;;
23121;SDS011;11730;51.248;22.534;2023-07-31T01:09:37;5.25;;;4.10;;
23121;SDS011;11730;51.248;22.534;2023-07-31T01:12:13;6.38;;;3.90;;
23121;SDS011;11730;51.248;22.534;2023-07-31T01:17:32;4.43;;;3.60;;
23121;SDS011;11730;51.248;22.534;2023-07-31T01:20:01;5.60;;;3.75;;
23121;SDS011;11730;51.248;22.534;2023-07-31T01:25:16;5.65;;;3.90;;
23121;SDS011;11730;51.248;22.534;2023-07-31T01:28:21;6.53;;;4.05;;
23121;SDS011;11730;51.248;22.534;2023-07-31T01:30:54;7.45;;;4.95;;
23121;SDS011;11730;51.248;22.534;2023-07-31T01:33:24;5.82;;;4.50;;
23121;SDS011;11730;51.248;22.534;2023-07-31T01:35:51;6.88;;;4.22;;
23121;SDS011;11730;51.248;22.534;2023-07-31T01:38:21;6.72;;;4.40;;
23121;SDS011;11730;51.248;22.534;2023-07-31T01:40:52;4.68;;;3.97;;
23121;SDS011;11730;51.248;22.534;2023-07-31T01:43:19;5.38;;;4.00;;
23121;SDS011;11730;51.248;22.534;2023-07-31T01:45:46;5.18;;;4.30;;
23121;SDS011;11730;51.248;22.534;2023-07-31T01:48:13;7.00;;;4.47;;
23121;SDS011;11730;51.248;22.534;2023-07-31T01:50:41;6.82;;;4.15;;
23121;SDS011;11730;51.248;22.534;2023-07-31T01:53:08;8.18;;;4.10;;
23121;SDS011;11730;51.248;22.534;2023-07-31T01:55:35;7.57;;;4.30;;
23121;SDS011;11730;51.248;22.534;2023-07-31T01:58:02;5.93;;;4.22;;
23121;SDS011;11730;51.248;22.534;2023-07-31T02:00:30;5.38;;;4.35;;
23121;SDS011;11730;51.248;22.534;2023-07-31T02:02:57;4.50;;;3.80;;
23121;SDS011;11730;51.248;22.534;2023-07-31T02:05:26;6.40;;;3.80;;
23121;SDS011;11730;51.248;22.534;2023-07-31T02:07:53;5.22;;;3.85;;
23121;SDS011;11730;51.248;22.534;2023-07-31T02:10:20;4.63;;;3.65;;
23121;SDS011;11730;51.248;22.534;2023-07-31T02:12:47;6.68;;;3.60;;
23121;SDS011;11730;51.248;22.534;2023-07-31T02:15:14;4.70;;;3.80;;
23121;SDS011;11730;51.248;22.534;2023-07-31T02:17:41;4.75;;;3.63;;
23121;SDS011;11730;51.248;22.534;2023-07-31T02:20:08;6.07;;;4.07;;
23121;SDS011;11730;51.248;22.534;2023-07-31T02:22:36;4.75;;;3.80;;
23121;SDS011;11730;51.248;22.534;2023-07-31T02:25:03;5.72;;;3.65;;
23121;SDS011;11730;51.248;22.534;2023-07-31T02:27:31;4.18;;;3.67;;
23121;SDS011;11730;51.248;22.534;2023-07-31T02:29:58;5.93;;;3.72;;
23121;SDS011;11730;51.248;22.534;2023-07-31T02:32:25;8.13;;;3.70;;
23121;SDS011;11730;51.248;22.534;2023-07-31T02:34:53;5.00;;;3.78;;
23121;SDS011;11730;51.248;22.534;2023-07-31T02:37:20;3.42;;;2.83;;
23121;SDS011;11730;51.248;22.534;2023-07-31T02:39:47;6.07;;;3.55;;
23121;SDS011;11730;51.248;22.534;2023-07-31T02:42:14;3.65;;;3.17;;
23121;SDS011;11730;51.248;22.534;2023-07-31T02:44:41;6.70;;;3.33;;
23121;SDS011;11730;51.248;22.534;2023-07-31T02:47:08;4.43;;;2.97;;
23121;SDS011;11730;51.248;22.534;2023-07-31T02:49:35;4.22;;;3.35;;
23121;SDS011;11730;51.248;22.534;2023-07-31T02:52:03;4.90;;;3.80;;
23121;SDS011;11730;51.248;22.534;2023-07-31T02:54:30;4.40;;;3.40;;
23121;SDS011;11730;51.248;22.534;2023-07-31T02:56:57;4.18;;;3.70;;
23121;SDS011;11730;51.248;22.534;2023-07-31T02:59:24;6.43;;;3.85;;
23121;SDS011;11730;51.248;22.534;2023-07-31T03:01:52;6.00;;;3.72;;
23121;SDS011;11730;51.248;22.534;2023-07-31T03:04:19;6.03;;;4.07;;
23121;SDS011;11730;51.248;22.534;2023-07-31T03:06:46;8.98;;;3.80;;
23121;SDS011;11730;51.248;22.534;2023-07-31T03:09:13;5.57;;;3.95;;
23121;SDS011;11730;51.248;22.534;2023-07-31T03:11:40;5.75;;;3.97;;
23121;SDS011;11730;51.248;22.534;2023-07-31T03:14:08;7.47;;;4.32;;
23121;SDS011;11730;51.248;22.534;2023-07-31T03:16:35;5.43;;;4.45;;
23121;SDS011;11730;51.248;22.534;2023-07-31T03:19:02;5.90;;;4.15;;
23121;SDS011;11730;51.248;22.534;2023-07-31T03:21:29;4.75;;;4.00;;
23121;SDS011;11730;51.248;22.534;2023-07-31T03:23:57;5.40;;;3.60;;
23121;SDS011;11730;51.248;22.534;2023-07-31T03:26:23;6.45;;;3.63;;
23121;SDS011;11730;51.248;22.534;2023-07-31T03:28:51;6.25;;;3.38;;
23121;SDS011;11730;51.248;22.534;2023-07-31T03:31:17;4.75;;;3.75;;
23121;SDS011;11730;51.248;22.534;2023-07-31T03:33:45;5.82;;;4.13;;
23121;SDS011;11730;51.248;22.534;2023-07-31T03:36:12;4.65;;;3.90;;
23121;SDS011;11730;51.248;22.534;2023-07-31T03:38:39;5.70;;;3.67;;
23121;SDS011;11730;51.248;22.534;2023-07-31T03:41:07;6.03;;;3.50;;
23121;SDS011;11730;51.248;22.534;2023-07-31T03:43:34;7.13;;;3.63;;
23121;SDS011;11730;51.248;22.534;2023-07-31T03:46:01;4.80;;;3.38;;
23121;SDS011;11730;51.248;22.534;2023-07-31T03:48:28;5.85;;;3.55;;
23121;SDS011;11730;51.248;22.534;2023-07-31T03:50:56;6.90;;;3.20;;
23121;SDS011;11730;51.248;22.534;2023-07-31T03:53:23;6.45;;;3.40;;
23121;SDS011;11730;51.248;22.534;2023-07-31T03:55:50;5.68;;;3.22;;
23121;SDS011;11730;51.248;22.534;2023-07-31T03:58:17;7.35;;;3.60;;
23121;SDS011;11730;51.248;22.534;2023-07-31T04:00:45;4.50;;;3.28;;
23121;SDS011;11730;51.248;22.534;2023-07-31T04:03:12;8.02;;;3.53;;
23121;SDS011;11730;51.248;22.534;2023-07-31T04:05:39;5.47;;;3.40;;
23121;SDS011;11730;51.248;22.534;2023-07-31T04:08:06;5.55;;;3.50;;
23121;SDS011;11730;51.248;22.534;2023-07-31T04:10:33;5.65;;;3.55;;
23121;SDS011;11730;51.248;22.534;2023-07-31T04:13:01;4.00;;;3.33;;
23121;SDS011;11730;51.248;22.534;2023-07-31T04:15:27;3.90;;;3.28;;
23121;SDS011;11730;51.248;22.534;2023-07-31T04:17:54;4.45;;;3.00;;
23121;SDS011;11730;51.248;22.534;2023-07-31T04:20:22;5.72;;;3.75;;
23121;SDS011;11730;51.248;22.534;2023-07-31T04:22:49;4.13;;;3.42;;
23121;SDS011;11730;51.248;22.534;2023-07-31T04:25:16;4.60;;;3.20;;
23121;SDS011;11730;51.248;22.534;2023-07-31T04:27:43;4.72;;;3.03;;
23121;SDS011;11730;51.248;22.534;2023-07-31T04:30:10;5.38;;;3.90;;
23121;SDS011;11730;51.248;22.534;2023-07-31T04:32:37;5.60;;;3.30;;
23121;SDS011;11730;51.248;22.534;2023-07-31T04:35:05;4.28;;;3.47;;
23121;SDS011;11730;51.248;22.534;2023-07-31T04:37:32;4.03;;;3.10;;
23121;SDS011;11730;51.248;22.534;2023-07-31T04:39:59;6.07;;;3.75;;
23121;SDS011;11730;51.248;22.534;2023-07-31T04:42:26;8.52;;;3.65;;
23121;SDS011;11730;51.248;22.534;2023-07-31T04:44:55;4.32;;;3.00;;
23121;SDS011;11730;51.248;22.534;2023-07-31T04:47:22;4.18;;;3.33;;
23121;SDS011;11730;51.248;22.534;2023-07-31T04:49:49;3.72;;;3.20;;
23121;SDS011;11730;51.248;22.534;2023-07-31T04:52:16;5.40;;;3.60;;
23121;SDS011;11730;51.248;22.534;2023-07-31T04:54:44;3.83;;;3.35;;
23121;SDS011;11730;51.248;22.534;2023-07-31T04:57:11;6.40;;;3.47;;
23121;SDS011;11730;51.248;22.534;2023-07-31T04:59:38;4.50;;;3.40;;
23121;SDS011;11730;51.248;22.534;2023-07-31T05:02:07;5.75;;;3.72;;
23121;SDS011;11730;51.248;22.534;2023-07-31T05:04:35;6.65;;;3.50;;
23121;SDS011;11730;51.248;22.534;2023-07-31T05:07:02;5.20;;;3.70;;
23121;SDS011;11730;51.248;22.534;2023-07-31T05:09:29;4.95;;;3.30;;
23121;SDS011;11730;51.248;22.534;2023-07-31T05:11:56;11.00;;;4.13;;
23121;SDS011;11730;51.248;22.534;2023-07-31T05:14:24;5.50;;;3.17;;
23121;SDS011;11730;51.248;22.534;2023-07-31T05:16:52;12.75;;;4.18;;
23121;SDS011;11730;51.248;22.534;2023-07-31T05:19:19;4.10;;;3.60;;
23121;SDS011;11730;51.248;22.534;2023-07-31T05:21:47;4.18;;;3.50;;
23121;SDS011;11730;51.248;22.534;2023-07-31T05:24:14;8.57;;;4.07;;
23121;SDS011;11730;51.248;22.534;2023-07-31T05:26:41;10.07;;;3.67;;
23121;SDS011;11730;51.248;22.534;2023-07-31T05:29:08;7.10;;;4.40;;
23121;SDS011;11730;51.248;22.534;2023-07-31T05:31:36;7.43;;;3.63;;
23121;SDS011;11730;51.248;22.534;2023-07-31T05:34:04;6.15;;;3.78;;
23121;SDS011;11730;51.248;22.534;2023-07-31T05:36:32;6.22;;;3.95;;
23121;SDS011;11730;51.248;22.534;2023-07-31T05:38:59;6.75;;;3.67;;
23121;SDS011;11730;51.248;22.534;2023-07-31T05:41:26;4.88;;;3.83;;
23121;SDS011;11730;51.248;22.534;2023-07-31T05:43:53;8.07;;;3.85;;
23121;SDS011;11730;51.248;22.534;2023-07-31T05:46:21;5.53;;;3.60;;
23121;SDS011;11730;51.248;22.534;2023-07-31T05:48:47;4.78;;;3.88;;
23121;SDS011;11730;51.248;22.534;2023-07-31T05:51:15;6.88;;;3.75;;
23121;SDS011;11730;51.248;22.534;2023-07-31T05:53:42;5.82;;;4.30;;
23121;SDS011;11730;51.248;22.534;2023-07-31T05:56:10;15.23;;;4.28;;
23121;SDS011;11730;51.248;22.534;2023-07-31T05:58:36;4.55;;;4.03;;
23121;SDS011;11730;51.248;22.534;2023-07-31T06:01:03;5.68;;;4.00;;
23121;SDS011;11730;51.248;22.534;2023-07-31T06:03:30;6.32;;;5.00;;
23121;SDS011;11730;51.248;22.534;2023-07-31T06:05:57;12.38;;;5.15;;
23121;SDS011;11730;51.248;22.534;2023-07-31T06:08:25;9.02;;;6.63;;
23121;SDS011;11730;51.248;22.534;2023-07-31T06:10:52;9.93;;;7.68;;
23121;SDS011;11730;51.248;22.534;2023-07-31T06:13:19;6.25;;;4.32;;
23121;SDS011;11730;51.248;22.534;2023-07-31T06:15:46;6.30;;;3.78;;
23121;SDS011;11730;51.248;22.534;2023-07-31T06:18:13;5.47;;;4.30;;
23121;SDS011;11730;51.248;22.534;2023-07-31T06:20:41;10.02;;;3.85;;
23121;SDS011;11730;51.248;22.534;2023-07-31T06:23:08;6.95;;;4.07;;
23121;SDS011;11730;51.248;22.534;2023-07-31T06:25:36;6.65;;;3.63;;
23121;SDS011;11730;51.248;22.534;2023-07-31T06:28:03;7.18;;;3.65;;
23121;SDS011;11730;51.248;22.534;2023-07-31T06:30:30;3.45;;;3.08;;
23121;SDS011;11730;51.248;22.534;2023-07-31T06:32:58;3.40;;;3.10;;
23121;SDS011;11730;51.248;22.534;2023-07-31T06:35:25;4.97;;;3.50;;
23121;SDS011;11730;51.248;22.534;2023-07-31T06:37:52;7.47;;;3.20;;
23121;SDS011;11730;51.248;22.534;2023-07-31T06:40:19;7.00;;;3.55;;
23121;SDS011;11730;51.248;22.534;2023-07-31T06:42:46;14.73;;;10.85;;
23121;SDS011;11730;51.248;22.534;2023-07-31T06:45:14;19.98;;;14.90;;
23121;SDS011;11730;51.248;22.534;2023-07-31T06:47:41;5.15;;;4.07;;
23121;SDS011;11730;51.248;22.534;2023-07-31T06:50:09;11.05;;;4.38;;
23121;SDS011;11730;51.248;22.534;2023-07-31T06:52:36;11.20;;;3.55;;
23121;SDS011;11730;51.248;22.534;2023-07-31T06:55:03;6.60;;;3.45;;
23121;SDS011;11730;51.248;22.534;2023-07-31T06:57:44;6.13;;;3.40;;
23121;SDS011;11730;51.248;22.534;2023-07-31T07:00:11;5.63;;;3.42;;
23121;SDS011;11730;51.248;22.534;2023-07-31T07:02:39;5.22;;;3.50;;
23121;SDS011;11730;51.248;22.534;2023-07-31T07:05:07;3.40;;;2.85;;
23121;SDS011;11730;51.248;22.534;2023-07-31T07:07:35;4.70;;;3.17;;
23121;SDS011;11730;51.248;22.534;2023-07-31T07:10:02;7.28;;;3.40;;
23121;SDS011;11730;51.248;22.534;2023-07-31T07:12:30;10.43;;;3.95;;
23121;SDS011;11730;51.248;22.534;2023-07-31T07:14:58;9.40;;;3.95;;
23121;SDS011;11730;51.248;22.534;2023-07-31T07:17:26;5.70;;;3.63;;
23121;SDS011;11730;51.248;22.534;2023-07-31T07:19:54;5.95;;;3.72;;
23121;SDS011;11730;51.248;22.534;2023-07-31T07:22:22;6.38;;;3.50;;
23121;SDS011;11730;51.248;22.534;2023-07-31T07:24:49;6.15;;;3.55;;
23121;SDS011;11730;51.248;22.534;2023-07-31T07:27:16;7.18;;;3.90;;
23121;SDS011;11730;51.248;22.534;2023-07-31T07:29:45;5.05;;;3.35;;
23121;SDS011;11730;51.248;22.534;2023-07-31T07:32:12;8.52;;;3.15;;
23121;SDS011;11730;51.248;22.534;2023-07-31T07:34:39;4.85;;;3.08;;
23121;SDS011;11730;51.248;22.534;2023-07-31T07:37:07;8.10;;;3.85;;
23121;SDS011;11730;51.248;22.534;2023-07-31T07:39:34;5.03;;;3.10;;
23121;SDS011;11730;51.248;22.534;2023-07-31T07:42:01;4.72;;;2.85;;
23121;SDS011;11730;51.248;22.534;2023-07-31T07:44:29;8.55;;;3.22;;
23121;SDS011;11730;51.248;22.534;2023-07-31T07:46:56;3.33;;;2.88;;
23121;SDS011;11730;51.248;22.534;2023-07-31T07:49:24;4.88;;;2.90;;
23121;SDS011;11730;51.248;22.534;2023-07-31T07:51:51;6.03;;;3.22;;
23121;SDS011;11730;51.248;22.534;2023-07-31T07:54:18;8.50;;;4.90;;
23121;SDS011;11730;51.248;22.534;2023-07-31T07:56:47;6.03;;;4.53;;
23121;SDS011;11730;51.248;22.534;2023-07-31T07:59:14;4.70;;;2.58;;
23121;SDS011;11730;51.248;22.534;2023-07-31T08:01:41;7.43;;;3.42;;
23121;SDS011;11730;51.248;22.534;2023-07-31T08:04:08;9.95;;;3.03;;
23121;SDS011;11730;51.248;22.534;2023-07-31T08:06:35;4.65;;;2.95;;
23121;SDS011;11730;51.248;22.534;2023-07-31T08:09:03;4.07;;;2.97;;
23121;SDS011;11730;51.248;22.534;2023-07-31T08:11:33;4.90;;;2.92;;
23121;SDS011;11730;51.248;22.534;2023-07-31T08:14:00;4.45;;;2.65;;
23121;SDS011;11730;51.248;22.534;2023-07-31T08:16:27;6.00;;;2.80;;
23121;SDS011;11730;51.248;22.534;2023-07-31T08:18:54;10.73;;;3.08;;
23121;SDS011;11730;51.248;22.534;2023-07-31T08:21:21;6.30;;;2.40;;
23121;SDS011;11730;51.248;22.534;2023-07-31T08:23:48;4.55;;;2.50;;
23121;SDS011;11730;51.248;22.534;2023-07-31T08:26:16;3.80;;;2.45;;
23121;SDS011;11730;51.248;22.534;2023-07-31T08:28:43;3.47;;;2.78;;
23121;SDS011;11730;51.248;22.534;2023-07-31T08:31:11;4.07;;;2.50;;
23121;SDS011;11730;51.248;22.534;2023-07-31T08:33:38;8.05;;;2.88;;
23121;SDS011;11730;51.248;22.534;2023-07-31T08:36:06;7.78;;;2.83;;
23121;SDS011;11730;51.248;22.534;2023-07-31T08:38:33;7.20;;;2.75;;
23121;SDS011;11730;51.248;22.534;2023-07-31T08:41:02;4.35;;;2.50;;
23121;SDS011;11730;51.248;22.534;2023-07-31T08:43:30;6.68;;;2.97;;
23121;SDS011;11730;51.248;22.534;2023-07-31T08:45:58;9.50;;;2.47;;
23121;SDS011;11730;51.248;22.534;2023-07-31T08:48:26;3.63;;;2.10;;
23121;SDS011;11730;51.248;22.534;2023-07-31T08:50:54;4.40;;;2.45;;
23121;SDS011;11730;51.248;22.534;2023-07-31T08:53:21;6.28;;;2.40;;
23121;SDS011;11730;51.248;22.534;2023-07-31T08:55:48;7.63;;;2.70;;
23121;SDS011;11730;51.248;22.534;2023-07-31T08:58:17;3.90;;;2.38;;
23121;SDS011;11730;51.248;22.534;2023-07-31T09:00:45;6.15;;;4.82;;
23121;SDS011;11730;51.248;22.534;2023-07-31T09:03:17;4.10;;;2.63;;
23121;SDS011;11730;51.248;22.534;2023-07-31T09:05:45;4.67;;;2.37;;
23121;SDS011;11730;51.248;22.534;2023-07-31T09:08:13;4.60;;;2.38;;
23121;SDS011;11730;51.248;22.534;2023-07-31T09:10:43;6.40;;;3.67;;
23121;SDS011;11730;51.248;22.534;2023-07-31T09:13:13;6.50;;;2.72;;
23121;SDS011;11730;51.248;22.534;2023-07-31T09:15:41;9.00;;;2.42;;
23121;SDS011;11730;51.248;22.534;2023-07-31T09:18:10;7.68;;;3.30;;
23121;SDS011;11730;51.248;22.534;2023-07-31T09:20:38;3.75;;;2.67;;
23121;SDS011;11730;51.248;22.534;2023-07-31T09:23:06;7.85;;;2.65;;
23121;SDS011;11730;51.248;22.534;2023-07-31T09:25:34;7.10;;;2.88;;
23121;SDS011;11730;51.248;22.534;2023-07-31T09:28:06;4.72;;;2.70;;
23121;SDS011;11730;51.248;22.534;2023-07-31T09:33:19;9.40;;;2.80;;
23121;SDS011;11730;51.248;22.534;2023-07-31T09:35:46;6.15;;;2.40;;
23121;SDS011;11730;51.248;22.534;2023-07-31T09:38:16;5.28;;;2.47;;
23121;SDS011;11730;51.248;22.534;2023-07-31T09:40:44;3.78;;;2.60;;
23121;SDS011;11730;51.248;22.534;2023-07-31T09:43:13;5.55;;;2.03;;
23121;SDS011;11730;51.248;22.534;2023-07-31T09:45:48;3.00;;;2.28;;
23121;SDS011;11730;51.248;22.534;2023-07-31T09:48:20;3.97;;;1.95;;
23121;SDS011;11730;51.248;22.534;2023-07-31T09:50:48;6.75;;;2.72;;
23121;SDS011;11730;51.248;22.534;2023-07-31T09:53:15;4.40;;;2.22;;
23121;SDS011;11730;51.248;22.534;2023-07-31T09:55:43;4.40;;;1.95;;
23121;SDS011;11730;51.248;22.534;2023-07-31T09:58:11;3.90;;;2.10;;
23121;SDS011;11730;51.248;22.534;2023-07-31T10:00:39;3.60;;;2.20;;
23121;SDS011;11730;51.248;22.534;2023-07-31T10:03:07;5.20;;;2.30;;
23121;SDS011;11730;51.248;22.534;2023-07-31T10:08:06;4.35;;;2.00;;
23121;SDS011;11730;51.248;22.534;2023-07-31T10:10:36;2.03;;;1.83;;
23121;SDS011;11730;51.248;22.534;2023-07-31T10:13:07;2.78;;;1.80;;
23121;SDS011;11730;51.248;22.534;2023-07-31T10:15:34;3.53;;;1.88;;
23121;SDS011;11730;51.248;22.534;2023-07-31T10:18:03;4.00;;;1.85;;
23121;SDS011;11730;51.248;22.534;2023-07-31T10:20:33;2.10;;;1.80;;
23121;SDS011;11730;51.248;22.534;2023-07-31T10:23:00;3.42;;;2.10;;
23121;SDS011;11730;51.248;22.534;2023-07-31T10:25:28;2.80;;;2.08;;
23121;SDS011;11730;51.248;22.534;2023-07-31T10:27:56;4.25;;;1.83;;
23121;SDS011;11730;51.248;22.534;2023-07-31T10:30:24;6.63;;;3.28;;
23121;SDS011;11730;51.248;22.534;2023-07-31T10:32:53;4.18;;;2.47;;
23121;SDS011;11730;51.248;22.534;2023-07-31T10:35:22;2.22;;;1.95;;
23121;SDS011;11730;51.248;22.534;2023-07-31T10:37:49;5.88;;;2.00;;
23121;SDS011;11730;51.248;22.534;2023-07-31T10:40:24;2.63;;;1.80;;
23121;SDS011;11730;51.248;22.534;2023-07-31T10:42:55;3.83;;;2.00;;
23121;SDS011;11730;51.248;22.534;2023-07-31T10:45:33;3.58;;;2.10;;
23121;SDS011;11730;51.248;22.534;2023-07-31T10:48:04;9.27;;;6.88;;
23121;SDS011;11730;51.248;22.534;2023-07-31T10:50:37;6.82;;;1.98;;
23121;SDS011;11730;51.248;22.534;2023-07-31T10:53:04;4.05;;;2.22;;
23121;SDS011;11730;51.248;22.534;2023-07-31T10:55:38;3.38;;;2.30;;
23121;SDS011;11730;51.248;22.534;2023-07-31T11:00:41;4.95;;;1.75;;
23121;SDS011;11730;51.248;22.534;2023-07-31T11:05:41;5.78;;;3.42;;
23121;SDS011;11730;51.248;22.534;2023-07-31T11:08:22;4.70;;;2.42;;
23121;SDS011;11730;51.248;22.534;2023-07-31T11:13:29;4.13;;;1.70;;
23121;SDS011;11730;51.248;22.534;2023-07-31T11:16:20;4.85;;;2.40;;
23121;SDS011;11730;51.248;22.534;2023-07-31T11:18:51;2.10;;;1.48;;
23121;SDS011;11730;51.248;22.534;2023-07-31T11:21:21;3.63;;;1.92;;
23121;SDS011;11730;51.248;22.534;2023-07-31T11:23:50;2.53;;;2.00;;
23121;SDS011;11730;51.248;22.534;2023-07-31T11:26:19;1.73;;;1.42;;
23121;SDS011;11730;51.248;22.534;2023-07-31T11:28:47;3.38;;;1.83;;
23121;SDS011;11730;51.248;22.534;2023-07-31T11:31:15;6.05;;;1.75;;
23121;SDS011;11730;51.248;22.534;2023-07-31T11:33:42;3.85;;;1.60;;
23121;SDS011;11730;51.248;22.534;2023-07-31T11:36:16;3.85;;;1.63;;
23121;SDS011;11730;51.248;22.534;2023-07-31T11:38:44;3.47;;;1.48;;
23121;SDS011;11730;51.248;22.534;2023-07-31T11:41:13;4.07;;;1.95;;
23121;SDS011;11730;51.248;22.534;2023-07-31T11:43:42;7.45;;;2.28;;
23121;SDS011;11730;51.248;22.534;2023-07-31T11:46:09;5.10;;;2.00;;
23121;SDS011;11730;51.248;22.534;2023-07-31T11:48:36;3.50;;;1.60;;
23121;SDS011;11730;51.248;22.534;2023-07-31T11:51:04;2.72;;;1.48;;
23121;SDS011;11730;51.248;22.534;2023-07-31T11:56:04;5.55;;;1.60;;
23121;SDS011;11730;51.248;22.534;2023-07-31T11:58:34;2.67;;;1.40;;
23121;SDS011;11730;51.248;22.534;2023-07-31T12:01:02;9.15;;;4.22;;
23121;SDS011;11730;51.248;22.534;2023-07-31T12:03:30;4.50;;;1.85;;
23121;SDS011;11730;51.248;22.534;2023-07-31T12:05:58;2.95;;;1.58;;
23121;SDS011;11730;51.248;22.534;2023-07-31T12:08:26;2.95;;;1.90;;
23121;SDS011;11730;51.248;22.534;2023-07-31T12:10:53;3.78;;;2.00;;
23121;SDS011;11730;51.248;22.534;2023-07-31T12:13:21;6.05;;;1.95;;
23121;SDS011;11730;51.248;22.534;2023-07-31T12:15:56;2.05;;;1.85;;
23121;SDS011;11730;51.248;22.534;2023-07-31T12:18:26;3.30;;;2.13;;
23121;SDS011;11730;51.248;22.534;2023-07-31T12:20:55;4.05;;;2.45;;
23121;SDS011;11730;51.248;22.534;2023-07-31T12:23:25;4.60;;;2.13;;
23121;SDS011;11730;51.248;22.534;2023-07-31T12:26:06;4.43;;;2.45;;
23121;SDS011;11730;51.248;22.534;2023-07-31T12:28:36;3.10;;;1.90;;
23121;SDS011;11730;51.248;22.534;2023-07-31T12:31:05;3.08;;;2.25;;
23121;SDS011;11730;51.248;22.534;2023-07-31T12:33:36;4.30;;;2.13;;
23121;SDS011;11730;51.248;22.534;2023-07-31T12:36:09;4.15;;;2.28;;
23121;SDS011;11730;51.248;22.534;2023-07-31T12:38:38;5.13;;;2.03;;
23121;SDS011;11730;51.248;22.534;2023-07-31T12:41:05;3.28;;;1.90;;
23121;SDS011;11730;51.248;22.534;2023-07-31T12:43:33;2.67;;;1.80;;
23121;SDS011;11730;51.248;22.534;2023-07-31T12:46:01;3.22;;;1.90;;
23121;SDS011;11730;51.248;22.534;2023-07-31T12:48:28;3.67;;;2.55;;
23121;SDS011;11730;51.248;22.534;2023-07-31T12:50:55;2.58;;;1.98;;
23121;SDS011;11730;51.248;22.534;2023-07-31T12:53:22;5.35;;;2.10;;
23121;SDS011;11730;51.248;22.534;2023-07-31T12:55:50;4.10;;;2.17;;
23121;SDS011;11730;51.248;22.534;2023-07-31T12:58:17;4.20;;;2.03;;
23121;SDS011;11730;51.248;22.534;2023-07-31T13:00:44;3.88;;;2.05;;
23121;SDS011;11730;51.248;22.534;2023-07-31T13:03:11;3.60;;;1.67;;
23121;SDS011;11730;51.248;22.534;2023-07-31T13:05:38;4.03;;;1.80;;
23121;SDS011;11730;51.248;22.534;2023-07-31T13:08:05;10.02;;;2.15;;
23121;SDS011;11730;51.248;22.534;2023-07-31T13:10:32;10.30;;;2.00;;
23121;SDS011;11730;51.248;22.534;2023-07-31T13:13:00;4.68;;;1.80;;
23121;SDS011;11730;51.248;22.534;2023-07-31T13:15:27;4.07;;;1.73;;
23121;SDS011;11730;51.248;22.534;2023-07-31T13:17:55;2.78;;;1.80;;
23121;SDS011;11730;51.248;22.534;2023-07-31T13:20:22;3.08;;;1.73;;
23121;SDS011;11730;51.248;22.534;2023-07-31T13:22:49;4.88;;;1.95;;
23121;SDS011;11730;51.248;22.534;2023-07-31T13:25:17;2.88;;;2.00;;
23121;SDS011;11730;51.248;22.534;2023-07-31T13:27:44;5.18;;;1.42;;
23121;SDS011;11730;51.248;22.534;2023-07-31T13:30:11;2.45;;;1.52;;
23121;SDS011;11730;51.248;22.534;2023-07-31T13:32:38;2.97;;;2.13;;
23121;SDS011;11730;51.248;22.534;2023-07-31T13:35:06;3.53;;;1.33;;
23121;SDS011;11730;51.248;22.534;2023-07-31T13:37:34;3.70;;;1.40;;
23121;SDS011;11730;51.248;22.534;2023-07-31T13:40:01;3.25;;;1.60;;
23121;SDS011;11730;51.248;22.534;2023-07-31T13:42:31;2.22;;;1.30;;
23121;SDS011;11730;51.248;22.534;2023-07-31T13:44:59;4.80;;;3.15;;
23121;SDS011;11730;51.248;22.534;2023-07-31T13:47:30;8.60;;;4.50;;
23121;SDS011;11730;51.248;22.534;2023-07-31T13:49:58;4.07;;;2.97;;
23121;SDS011;11730;51.248;22.534;2023-07-31T13:52:25;2.15;;;1.38;;
23121;SDS011;11730;51.248;22.534;2023-07-31T13:54:52;3.90;;;2.78;;
23121;SDS011;11730;51.248;22.534;2023-07-31T13:57:19;2.75;;;1.83;;
23121;SDS011;11730;51.248;22.534;2023-07-31T13:59:47;4.30;;;2.15;;
23121;SDS011;11730;51.248;22.534;2023-07-31T14:02:14;2.95;;;2.05;;
23121;SDS011;11730;51.248;22.534;2023-07-31T14:04:41;3.75;;;1.60;;
23121;SDS011;11730;51.248;22.534;2023-07-31T14:07:08;4.25;;;1.80;;
23121;SDS011;11730;51.248;22.534;2023-07-31T14:09:35;7.32;;;1.85;;
23121;SDS011;11730;51.248;22.534;2023-07-31T14:12:02;6.05;;;2.30;;
23121;SDS011;11730;51.248;22.534;2023-07-31T14:14:30;2.75;;;1.98;;
23121;SDS011;11730;51.248;22.534;2023-07-31T14:17:00;2.95;;;1.70;;
23121;SDS011;11730;51.248;22.534;2023-07-31T14:19:28;4.57;;;1.88;;
23121;SDS011;11730;51.248;22.534;2023-07-31T14:21:57;3.88;;;2.42;;
23121;SDS011;11730;51.248;22.534;2023-07-31T14:24:37;5.50;;;2.97;;
23121;SDS011;11730;51.248;22.534;2023-07-31T14:27:04;3.58;;;1.85;;
23121;SDS011;11730;51.248;22.534;2023-07-31T14:29:31;8.57;;;2.47;;
23121;SDS011;11730;51.248;22.534;2023-07-31T14:31:59;4.40;;;2.20;;
23121;SDS011;11730;51.248;22.534;2023-07-31T14:34:26;3.63;;;2.25;;
23121;SDS011;11730;51.248;22.534;2023-07-31T14:36:54;4.30;;;2.10;;
23121;SDS011;11730;51.248;22.534;2023-07-31T14:39:21;4.85;;;2.60;;
23121;SDS011;11730;51.248;22.534;2023-07-31T14:41:48;5.32;;;2.38;;
23121;SDS011;11730;51.248;22.534;2023-07-31T14:44:15;6.30;;;2.97;;
23121;SDS011;11730;51.248;22.534;2023-07-31T14:46:42;5.60;;;2.55;;
23121;SDS011;11730;51.248;22.534;2023-07-31T14:49:10;7.78;;;2.22;;
23121;SDS011;11730;51.248;22.534;2023-07-31T14:51:37;4.40;;;2.28;;
23121;SDS011;11730;51.248;22.534;2023-07-31T14:54:04;5.28;;;2.33;;
23121;SDS011;11730;51.248;22.534;2023-07-31T14:56:31;4.35;;;1.90;;
23121;SDS011;11730;51.248;22.534;2023-07-31T14:58:58;6.78;;;1.50;;